sensor_id;sensor_type;location;lat;lon;timestamp;pressure;altitude;pressure_sealevel;temperature;humidity
39769;BME280;38939;47.824;14.642;2023-06-26T00:00:34;97035.44;;;17.37;71.18
39769;BME280;38939;47.824;14.642;2023-06-26T00:01:36;97035.09;;;17.34;71.43
39769;BME280;38939;47.824;14.642;2023-06-26T00:02:39;97036.88;;;17.28;71.65
39769;BME280;38939;47.824;14.642;2023-06-26T00:03:41;97035.28;;;17.27;71.83
39769;BME280;38939;47.824;14.642;2023-06-26T00:04:43;97040.00;;;17.25;71.74
39769;BME280;38939;47.824;14.642;2023-06-26T00:05:45;97030.97;;;17.21;71.66
39769;BME280;38939;47.824;14.642;2023-06-26T00:06:47;97030.81;;;17.11;72.43
39769;BME280;38939;47.824;14.642;2023-06-26T00:07:49;97034.66;;;17.03;72.98
39769;BME280;38939;47.824;14.642;2023-06-26T00:08:53;97031.91;;;16.98;71.92
39769;BME280;38939;47.824;14.642;2023-06-26T00:09:55;97032.88;;;16.92;72.59
39769;BME280;38939;47.824;14.642;2023-06-26T00:10:58;97041.97;;;16.84;72.10
39769;BME280;38939;47.824;14.642;2023-06-26T00:12:00;97043.59;;;16.73;73.50
39769;BME280;38939;47.824;14.642;2023-06-26T00:13:02;97034.59;;;16.69;73.07
39769;BME280;38939;47.824;14.642;2023-06-26T00:14:05;97035.38;;;16.70;72.88
39769;BME280;38939;47.824;14.642;2023-06-26T00:15:08;97032.97;;;16.68;73.69
39769;BME280;38939;47.824;14.642;2023-06-26T00:16:10;97032.19;;;16.68;73.49
39769;BME280;38939;47.824;14.642;2023-06-26T00:17:13;97036.16;;;16.70;73.10
39769;BME280;38939;47.824;14.642;2023-06-26T00:18:15;97027.00;;;16.73;73.38
39769;BME280;38939;47.824;14.642;2023-06-26T00:19:17;97037.00;;;16.71;73.51
39769;BME280;38939;47.824;14.642;2023-06-26T00:20:19;97038.34;;;16.73;73.28
39769;BME280;38939;47.824;14.642;2023-06-26T00:21:21;97027.56;;;16.75;73.58
39769;BME280;38939;47.824;14.642;2023-06-26T00:22:23;97027.06;;;16.78;73.63
39769;BME280;38939;47.824;14.642;2023-06-26T00:23:26;97025.00;;;16.80;73.64
39769;BME280;38939;47.824;14.642;2023-06-26T00:24:29;97029.97;;;16.76;74.19
39769;BME280;38939;47.824;14.642;2023-06-26T00:25:31;97028.13;;;16.77;74.10
39769;BME280;38939;47.824;14.642;2023-06-26T00:26:33;97027.06;;;16.78;74.42
39769;BME280;38939;47.824;14.642;2023-06-26T00:27:35;97026.50;;;16.76;74.45
39769;BME280;38939;47.824;14.642;2023-06-26T00:28:37;97028.69;;;16.79;74.06
39769;BME280;38939;47.824;14.642;2023-06-26T00:29:39;97030.75;;;16.77;74.30
39769;BME280;38939;47.824;14.642;2023-06-26T00:30:42;97034.69;;;16.74;73.96
39769;BME280;38939;47.824;14.642;2023-06-26T00:31:44;97028.34;;;16.75;73.52
39769;BME280;38939;47.824;14.642;2023-06-26T00:32:46;97027.06;;;16.78;73.64
39769;BME280;38939;47.824;14.642;2023-06-26T00:33:48;97026.66;;;16.81;73.28
39769;BME280;38939;47.824;14.642;2023-06-26T00:34:50;97025.59;;;16.82;73.43
39769;BME280;38939;47.824;14.642;2023-06-26T00:35:52;97033.50;;;16.82;73.31
39769;BME280;38939;47.824;14.642;2023-06-26T00:36:54;97030.63;;;16.84;73.23
39769;BME280;38939;47.824;14.642;2023-06-26T00:37:56;97034.31;;;16.83;73.09
39769;BME280;38939;47.824;14.642;2023-06-26T00:38:58;97028.00;;;16.84;73.23
39769;BME280;38939;47.824;14.642;2023-06-26T00:40:00;97034.97;;;16.78;73.44
39769;BME280;38939;47.824;14.642;2023-06-26T00:41:02;97028.34;;;16.75;73.99
39769;BME280;38939;47.824;14.642;2023-06-26T00:42:05;97028.34;;;16.75;73.35
39769;BME280;38939;47.824;14.642;2023-06-26T00:43:09;97023.66;;;16.77;73.31
39769;BME280;38939;47.824;14.642;2023-06-26T00:44:11;97034.41;;;16.76;73.21
39769;BME280;38939;47.824;14.642;2023-06-26T00:45:13;97038.66;;;16.77;73.26
39769;BME280;38939;47.824;14.642;2023-06-26T00:46:15;97028.34;;;16.75;72.92
39769;BME280;38939;47.824;14.642;2023-06-26T00:47:17;97039.69;;;16.76;72.77
39769;BME280;38939;47.824;14.642;2023-06-26T00:48:20;97037.06;;;16.76;73.02
39769;BME280;38939;47.824;14.642;2023-06-26T00:49:22;97031.47;;;16.72;73.20
39769;BME280;38939;47.824;14.642;2023-06-26T00:50:25;97032.50;;;16.71;73.45
39769;BME280;38939;47.824;14.642;2023-06-26T00:51:29;97036.16;;;16.70;73.42
39769;BME280;38939;47.824;14.642;2023-06-26T00:52:32;97037.94;;;16.65;74.28
39769;BME280;38939;47.824;14.642;2023-06-26T00:53:34;97035.03;;;16.66;73.81
39769;BME280;38939;47.824;14.642;2023-06-26T00:54:36;97030.59;;;16.67;73.52
39769;BME280;38939;47.824;14.642;2023-06-26T00:55:39;97033.22;;;16.67;73.35
39769;BME280;38939;47.824;14.642;2023-06-26T00:56:41;97031.38;;;16.67;73.21
39769;BME280;38939;47.824;14.642;2023-06-26T00:57:43;97032.19;;;16.68;73.07
39769;BME280;38939;47.824;14.642;2023-06-26T00:58:47;97024.50;;;16.66;73.85
39769;BME280;38939;47.824;14.642;2023-06-26T00:59:50;97024.75;;;16.65;74.11
39769;BME280;38939;47.824;14.642;2023-06-26T01:00:52;97021.31;;;16.64;74.11
39769;BME280;38939;47.824;14.642;2023-06-26T01:01:54;97021.06;;;16.66;73.84
39769;BME280;38939;47.824;14.642;2023-06-26T01:02:56;97023.47;;;16.67;73.92
39769;BME280;38939;47.824;14.642;2023-06-26T01:04:02;97019.78;;;16.68;74.08
39769;BME280;38939;47.824;14.642;2023-06-26T01:05:05;97024.28;;;16.68;74.01
39769;BME280;38939;47.824;14.642;2023-06-26T01:06:10;97024.28;;;16.68;73.76
39769;BME280;38939;47.824;14.642;2023-06-26T01:07:14;97021.41;;;16.69;73.91
39769;BME280;38939;47.824;14.642;2023-06-26T01:08:17;97021.97;;;16.71;73.66
39769;BME280;38939;47.824;14.642;2023-06-26T01:09:21;97019.09;;;16.73;73.82
39769;BME280;38939;47.824;14.642;2023-06-26T01:10:24;97017.03;;;16.75;73.84
39769;BME280;38939;47.824;14.642;2023-06-26T01:11:29;97015.97;;;16.76;73.91
39769;BME280;38939;47.824;14.642;2023-06-26T01:12:33;97021.25;;;16.76;73.34
39769;BME280;38939;47.824;14.642;2023-06-26T01:13:36;97022.06;;;16.76;73.45
39769;BME280;38939;47.824;14.642;2023-06-26T01:14:38;97010.97;;;16.74;73.14
39769;BME280;38939;47.824;14.642;2023-06-26T01:15:40;97016.22;;;16.74;73.18
39769;BME280;38939;47.824;14.642;2023-06-26T01:16:43;97018.28;;;16.72;73.06
39769;BME280;38939;47.824;14.642;2023-06-26T01:17:50;97015.91;;;16.71;73.31
39769;BME280;38939;47.824;14.642;2023-06-26T01:18:53;97024.50;;;16.66;73.54
39769;BME280;38939;47.824;14.642;2023-06-26T01:19:55;97010.78;;;16.64;73.64
39769;BME280;38939;47.824;14.642;2023-06-26T01:20:57;97014.69;;;16.62;73.82
39769;BME280;38939;47.824;14.642;2023-06-26T01:22:13;97015.47;;;16.62;73.63
39769;BME280;38939;47.824;14.642;2023-06-26T01:24:33;97011.59;;;16.65;73.28
39769;BME280;38939;47.824;14.642;2023-06-26T01:27:08;97009.19;;;16.63;73.49
39769;BME280;38939;47.824;14.642;2023-06-26T01:28:13;97009.19;;;16.63;73.14
39769;BME280;38939;47.824;14.642;2023-06-26T01:29:16;97016.84;;;16.65;73.13
39769;BME280;38939;47.824;14.642;2023-06-26T01:30:20;97008.41;;;16.63;73.22
39769;BME280;38939;47.824;14.642;2023-06-26T01:31:23;97004.38;;;16.60;73.07
39769;BME280;38939;47.824;14.642;2023-06-26T01:32:26;97018.28;;;16.55;73.30
39769;BME280;38939;47.824;14.642;2023-06-26T01:33:28;97011.31;;;16.49;73.50
39769;BME280;38939;47.824;14.642;2023-06-26T01:34:30;97002.28;;;16.45;73.12
39769;BME280;38939;47.824;14.642;2023-06-26T01:35:32;97009.16;;;16.46;73.15
39769;BME280;38939;47.824;14.642;2023-06-26T01:36:34;97000.72;;;16.44;72.97
39769;BME280;38939;47.824;14.642;2023-06-26T01:37:36;96993.50;;;16.39;73.12
39769;BME280;38939;47.824;14.642;2023-06-26T01:38:38;97006.09;;;16.37;73.18
39769;BME280;38939;47.824;14.642;2023-06-26T01:39:40;96999.00;;;16.38;73.41
39769;BME280;38939;47.824;14.642;2023-06-26T01:40:42;96998.75;;;16.39;73.76
39769;BME280;38939;47.824;14.642;2023-06-26T01:41:45;97004.81;;;16.40;73.69
39769;BME280;38939;47.824;14.642;2023-06-26T01:42:47;97004.81;;;16.40;73.84
39769;BME280;38939;47.824;14.642;2023-06-26T01:44:51;97002.44;;;16.38;74.04
39769;BME280;38939;47.824;14.642;2023-06-26T01:45:56;97006.88;;;16.38;74.04
39769;BME280;38939;47.824;14.642;2023-06-26T01:47:01;97002.44;;;16.38;74.02
39769;BME280;38939;47.824;14.642;2023-06-26T01:48:04;96997.97;;;16.39;74.31
39769;BME280;38939;47.824;14.642;2023-06-26T01:50:14;97000.03;;;16.37;74.05
39769;BME280;38939;47.824;14.642;2023-06-26T01:51:21;97004.50;;;16.36;74.33
39769;BME280;38939;47.824;14.642;2023-06-26T01:52:29;97010.25;;;16.33;73.89
39769;BME280;38939;47.824;14.642;2023-06-26T01:53:34;96997.69;;;16.24;74.37
39769;BME280;38939;47.824;14.642;2023-06-26T01:54:39;97001.25;;;16.17;74.12
39769;BME280;38939;47.824;14.642;2023-06-26T01:55:51;96998.88;;;16.16;74.14
39769;BME280;38939;47.824;14.642;2023-06-26T01:56:56;96999.19;;;16.19;74.47
39769;BME280;38939;47.824;14.642;2023-06-26T01:57:59;97002.38;;;16.22;74.54
39769;BME280;38939;47.824;14.642;2023-06-26T01:59:01;97002.38;;;16.22;74.34
39769;BME280;38939;47.824;14.642;2023-06-26T02:00:03;97005.00;;;16.22;74.49
39769;BME280;38939;47.824;14.642;2023-06-26T02:01:05;96998.72;;;16.23;74.41
39769;BME280;38939;47.824;14.642;2023-06-26T02:02:07;96998.72;;;16.23;74.26
39769;BME280;38939;47.824;14.642;2023-06-26T02:03:10;96993.47;;;16.23;74.33
39769;BME280;38939;47.824;14.642;2023-06-26T02:04:12;96996.88;;;16.23;74.28
39769;BME280;38939;47.824;14.642;2023-06-26T02:05:14;96997.44;;;16.25;74.36
39769;BME280;38939;47.824;14.642;2023-06-26T02:06:16;96997.44;;;16.25;74.59
39769;BME280;38939;47.824;14.642;2023-06-26T02:07:18;96998.72;;;16.23;74.29
39769;BME280;38939;47.824;14.642;2023-06-26T02:08:19;96991.41;;;16.25;74.42
39769;BME280;38939;47.824;14.642;2023-06-26T02:09:21;96998.25;;;16.26;74.45
39769;BME280;38939;47.824;14.642;2023-06-26T02:10:23;96999.06;;;16.26;74.58
39769;BME280;38939;47.824;14.642;2023-06-26T02:11:25;96999.84;;;16.27;74.28
39769;BME280;38939;47.824;14.642;2023-06-26T02:12:26;96998.25;;;16.26;74.36
39769;BME280;38939;47.824;14.642;2023-06-26T02:13:28;96991.63;;;16.23;74.51
39769;BME280;38939;47.824;14.642;2023-06-26T02:14:30;96999.28;;;16.25;74.32
39769;BME280;38939;47.824;14.642;2023-06-26T02:15:32;97001.38;;;16.23;74.85
39769;BME280;38939;47.824;14.642;2023-06-26T02:16:34;96998.72;;;16.23;75.06
39769;BME280;38939;47.824;14.642;2023-06-26T02:17:36;96991.84;;;16.22;75.13
39769;BME280;38939;47.824;14.642;2023-06-26T02:18:38;96999.75;;;16.22;74.68
39769;BME280;38939;47.824;14.642;2023-06-26T02:19:39;97005.00;;;16.22;74.52
39769;BME280;38939;47.824;14.642;2023-06-26T02:20:49;96997.94;;;16.22;74.49
39769;BME280;38939;47.824;14.642;2023-06-26T02:21:51;96995.53;;;16.20;75.08
39769;BME280;38939;47.824;14.642;2023-06-26T02:22:52;96991.28;;;16.19;74.64
39769;BME280;38939;47.824;14.642;2023-06-26T02:23:54;96993.13;;;16.19;74.50
39769;BME280;38939;47.824;14.642;2023-06-26T02:24:56;96993.91;;;16.19;74.45
39769;BME280;38939;47.824;14.642;2023-06-26T02:25:58;96993.91;;;16.19;74.49
39769;BME280;38939;47.824;14.642;2023-06-26T02:27:00;96995.53;;;16.20;74.62
39769;BME280;38939;47.824;14.642;2023-06-26T02:28:01;96994.19;;;16.18;74.93
39769;BME280;38939;47.824;14.642;2023-06-26T02:29:03;96999.91;;;16.15;75.28
39769;BME280;38939;47.824;14.642;2023-06-26T02:30:05;96999.66;;;16.16;75.36
39769;BME280;38939;47.824;14.642;2023-06-26T02:31:07;97000.22;;;16.18;75.08
39769;BME280;38939;47.824;14.642;2023-06-26T02:32:09;96998.38;;;16.19;74.82
39769;BME280;38939;47.824;14.642;2023-06-26T02:33:11;97008.47;;;16.22;74.98
39769;BME280;38939;47.824;14.642;2023-06-26T02:34:13;97002.38;;;16.22;74.71
39769;BME280;38939;47.824;14.642;2023-06-26T02:35:15;97007.66;;;16.22;74.60
39769;BME280;38939;47.824;14.642;2023-06-26T02:36:17;97006.84;;;16.21;74.50
39769;BME280;38939;47.824;14.642;2023-06-26T02:37:19;97006.84;;;16.21;74.49
39769;BME280;38939;47.824;14.642;2023-06-26T02:38:21;97005.00;;;16.22;74.36
39769;BME280;38939;47.824;14.642;2023-06-26T02:39:22;97004.22;;;16.21;74.07
39769;BME280;38939;47.824;14.642;2023-06-26T02:40:24;96997.13;;;16.22;74.13
39769;BME280;38939;47.824;14.642;2023-06-26T02:41:26;97001.59;;;16.21;74.37
39769;BME280;38939;47.824;14.642;2023-06-26T02:42:28;97000.00;;;16.20;74.49
39769;BME280;38939;47.824;14.642;2023-06-26T02:43:30;97003.31;;;16.15;74.91
39769;BME280;38939;47.824;14.642;2023-06-26T02:44:32;96997.75;;;16.12;74.84
39769;BME280;38939;47.824;14.642;2023-06-26T02:45:34;96997.97;;;16.10;74.78
39769;BME280;38939;47.824;14.642;2023-06-26T02:46:36;97005.09;;;16.10;74.48
39769;BME280;38939;47.824;14.642;2023-06-26T02:47:38;97003.25;;;16.10;74.89
39769;BME280;38939;47.824;14.642;2023-06-26T02:48:41;97003.25;;;16.10;74.36
39769;BME280;38939;47.824;14.642;2023-06-26T02:49:43;97011.94;;;16.11;74.46
39769;BME280;38939;47.824;14.642;2023-06-26T02:50:45;97009.06;;;16.12;74.64
39769;BME280;38939;47.824;14.642;2023-06-26T02:51:47;97011.47;;;16.14;74.60
39769;BME280;38939;47.824;14.642;2023-06-26T02:52:50;97012.28;;;16.14;74.54
39769;BME280;38939;47.824;14.642;2023-06-26T02:53:54;97015.13;;;16.13;74.62
39769;BME280;38939;47.824;14.642;2023-06-26T02:54:56;97006.44;;;16.12;74.89
39769;BME280;38939;47.824;14.642;2023-06-26T02:55:57;97007.47;;;16.11;74.78
39769;BME280;38939;47.824;14.642;2023-06-26T02:56:59;97018.00;;;16.11;75.03
39769;BME280;38939;47.824;14.642;2023-06-26T02:58:01;97006.56;;;16.06;75.62
39769;BME280;38939;47.824;14.642;2023-06-26T02:59:03;97004.19;;;16.04;75.17
39769;BME280;38939;47.824;14.642;2023-06-26T03:00:05;97003.91;;;16.06;74.98
39769;BME280;38939;47.824;14.642;2023-06-26T03:01:09;97007.38;;;16.06;74.98
39769;BME280;38939;47.824;14.642;2023-06-26T03:02:11;97003.91;;;16.06;75.04
39769;BME280;38939;47.824;14.642;2023-06-26T03:03:13;97010.00;;;16.06;74.97
39769;BME280;38939;47.824;14.642;2023-06-26T03:04:15;97007.94;;;16.08;74.98
39769;BME280;38939;47.824;14.642;2023-06-26T03:05:19;97008.97;;;16.07;75.20
39769;BME280;38939;47.824;14.642;2023-06-26T03:06:21;97006.56;;;16.06;75.67
39769;BME280;38939;47.824;14.642;2023-06-26T03:07:23;97009.19;;;16.06;75.79
39769;BME280;38939;47.824;14.642;2023-06-26T03:08:26;97004.75;;;16.06;75.57
39769;BME280;38939;47.824;14.642;2023-06-26T03:09:28;97003.91;;;16.06;75.32
39769;BME280;38939;47.824;14.642;2023-06-26T03:10:29;97007.59;;;16.05;75.70
39769;BME280;38939;47.824;14.642;2023-06-26T03:11:32;97008.41;;;16.05;75.88
39769;BME280;38939;47.824;14.642;2023-06-26T03:12:33;97008.41;;;16.05;75.74
39769;BME280;38939;47.824;14.642;2023-06-26T03:13:35;97001.06;;;16.07;75.60
39769;BME280;38939;47.824;14.642;2023-06-26T03:14:37;97003.34;;;16.04;75.42
39769;BME280;38939;47.824;14.642;2023-06-26T03:15:39;97003.13;;;16.05;75.70
39769;BME280;38939;47.824;14.642;2023-06-26T03:16:41;96999.72;;;16.05;75.37
39769;BME280;38939;47.824;14.642;2023-06-26T03:17:44;96999.72;;;16.05;75.48
39769;BME280;38939;47.824;14.642;2023-06-26T03:18:46;96997.06;;;16.05;75.44
39769;BME280;38939;47.824;14.642;2023-06-26T03:19:47;97000.97;;;16.02;76.13
39769;BME280;38939;47.824;14.642;2023-06-26T03:20:49;97002.00;;;16.01;76.12
39769;BME280;38939;47.824;14.642;2023-06-26T03:21:51;97002.00;;;16.01;76.08
39769;BME280;38939;47.824;14.642;2023-06-26T03:22:53;97003.63;;;16.02;75.90
39769;BME280;38939;47.824;14.642;2023-06-26T03:23:55;97004.63;;;16.01;75.93
39769;BME280;38939;47.824;14.642;2023-06-26T03:24:56;97002.56;;;16.03;76.06
39769;BME280;38939;47.824;14.642;2023-06-26T03:25:58;97002.56;;;16.03;76.23
39769;BME280;38939;47.824;14.642;2023-06-26T03:27:00;97005.53;;;16.07;76.00
39769;BME280;38939;47.824;14.642;2023-06-26T03:28:02;97003.69;;;16.07;76.22
39769;BME280;38939;47.824;14.642;2023-06-26T03:29:04;96999.22;;;16.08;76.23
39769;BME280;38939;47.824;14.642;2023-06-26T03:30:06;97006.91;;;16.09;76.12
39769;BME280;38939;47.824;14.642;2023-06-26T03:31:08;97003.47;;;16.09;76.12
39769;BME280;38939;47.824;14.642;2023-06-26T03:32:10;97006.09;;;16.09;76.16
39769;BME280;38939;47.824;14.642;2023-06-26T03:33:12;97005.88;;;16.10;75.87
39769;BME280;38939;47.824;14.642;2023-06-26T03:34:13;97011.69;;;16.12;76.06
39769;BME280;38939;47.824;14.642;2023-06-26T03:35:15;97003.81;;;16.12;76.17
39769;BME280;38939;47.824;14.642;2023-06-26T03:36:17;97009.28;;;16.11;76.42
39769;BME280;38939;47.824;14.642;2023-06-26T03:37:19;97011.94;;;16.11;76.42
39769;BME280;38939;47.824;14.642;2023-06-26T03:38:21;97009.53;;;16.09;76.39
39769;BME280;38939;47.824;14.642;2023-06-26T03:39:23;97009.19;;;16.06;75.98
39769;BME280;38939;47.824;14.642;2023-06-26T03:40:25;97008.41;;;16.05;75.75
39769;BME280;38939;47.824;14.642;2023-06-26T03:41:27;97016.84;;;16.07;75.72
39769;BME280;38939;47.824;14.642;2023-06-26T03:42:29;97014.16;;;16.02;76.44
39769;BME280;38939;47.824;14.642;2023-06-26T03:43:30;97008.75;;;15.97;76.12
39769;BME280;38939;47.824;14.642;2023-06-26T03:44:32;97016.66;;;15.97;76.04
39769;BME280;38939;47.824;14.642;2023-06-26T03:45:34;97011.88;;;15.94;76.50
39769;BME280;38939;47.824;14.642;2023-06-26T03:46:36;97013.38;;;15.90;76.64
39769;BME280;38939;47.824;14.642;2023-06-26T03:47:38;97018.31;;;15.86;76.83
39769;BME280;38939;47.824;14.642;2023-06-26T03:48:40;97015.31;;;15.83;76.32
39769;BME280;38939;47.824;14.642;2023-06-26T03:49:42;97020.94;;;15.86;76.32
39769;BME280;38939;47.824;14.642;2023-06-26T03:50:43;97014.63;;;15.87;76.40
39769;BME280;38939;47.824;14.642;2023-06-26T03:51:45;97016.81;;;15.90;76.39
39769;BME280;38939;47.824;14.642;2023-06-26T03:52:47;97010.75;;;15.90;76.63
39769;BME280;38939;47.824;14.642;2023-06-26T03:53:51;97016.81;;;15.90;76.32
39769;BME280;38939;47.824;14.642;2023-06-26T03:54:53;97019.22;;;15.92;76.34
39769;BME280;38939;47.824;14.642;2023-06-26T03:55:54;97021.84;;;15.92;76.28
39769;BME280;38939;47.824;14.642;2023-06-26T03:56:56;97020.78;;;15.93;76.86
39769;BME280;38939;47.824;14.642;2023-06-26T03:57:58;97017.38;;;15.92;76.75
39769;BME280;38939;47.824;14.642;2023-06-26T03:59:00;97018.72;;;15.95;76.84
39769;BME280;38939;47.824;14.642;2023-06-26T04:00:02;97024.78;;;15.95;76.68
39769;BME280;38939;47.824;14.642;2023-06-26T04:01:12;97024.47;;;15.92;76.81
39769;BME280;38939;47.824;14.642;2023-06-26T04:02:14;97024.13;;;15.88;77.00
39769;BME280;38939;47.824;14.642;2023-06-26T04:03:16;97026.41;;;15.85;77.41
39769;BME280;38939;47.824;14.642;2023-06-26T04:04:18;97020.38;;;15.84;77.28
39769;BME280;38939;47.824;14.642;2023-06-26T04:05:20;97023.00;;;15.84;76.99
39769;BME280;38939;47.824;14.642;2023-06-26T04:06:22;97024.34;;;15.87;77.08
39769;BME280;38939;47.824;14.642;2023-06-26T04:07:24;97022.28;;;15.89;77.35
39769;BME280;38939;47.824;14.642;2023-06-26T04:08:26;97025.16;;;15.87;77.09
39769;BME280;38939;47.824;14.642;2023-06-26T04:09:28;97022.28;;;15.89;77.09
39769;BME280;38939;47.824;14.642;2023-06-26T04:10:30;97024.91;;;15.89;77.32
39769;BME280;38939;47.824;14.642;2023-06-26T04:11:32;97028.34;;;15.89;76.95
39769;BME280;38939;47.824;14.642;2023-06-26T04:12:34;97028.13;;;15.91;77.05
39769;BME280;38939;47.824;14.642;2023-06-26T04:13:36;97027.09;;;15.92;76.88
39769;BME280;38939;47.824;14.642;2023-06-26T04:14:37;97031.66;;;15.96;77.07
39769;BME280;38939;47.824;14.642;2023-06-26T04:15:40;97022.72;;;15.97;77.04
39769;BME280;38939;47.824;14.642;2023-06-26T04:16:42;97031.44;;;15.98;77.40
39769;BME280;38939;47.824;14.642;2023-06-26T04:17:43;97031.66;;;15.96;77.77
39769;BME280;38939;47.824;14.642;2023-06-26T04:18:45;97029.59;;;15.98;77.82
39769;BME280;38939;47.824;14.642;2023-06-26T04:19:47;97031.19;;;15.99;77.61
39769;BME280;38939;47.824;14.642;2023-06-26T04:22:06;97038.50;;;15.97;77.62
39769;BME280;38939;47.824;14.642;2023-06-26T04:23:08;97026.75;;;16.00;77.44
39769;BME280;38939;47.824;14.642;2023-06-26T04:24:10;97034.38;;;16.02;77.37
39769;BME280;38939;47.824;14.642;2023-06-26T04:25:15;97036.00;;;16.03;77.61
39769;BME280;38939;47.824;14.642;2023-06-26T04:26:19;97026.41;;;15.96;77.68
39769;BME280;38939;47.824;14.642;2023-06-26T04:27:20;97027.19;;;15.97;77.62
39769;BME280;38939;47.824;14.642;2023-06-26T04:28:22;97033.03;;;15.99;77.51
39769;BME280;38939;47.824;14.642;2023-06-26T04:29:25;97029.38;;;16.00;77.29
39769;BME280;38939;47.824;14.642;2023-06-26T04:30:28;97038.63;;;16.03;77.05
39769;BME280;38939;47.824;14.642;2023-06-26T04:31:31;97031.28;;;16.05;77.22
39769;BME280;38939;47.824;14.642;2023-06-26T04:32:33;97036.34;;;16.06;77.45
39769;BME280;38939;47.824;14.642;2023-06-26T04:33:35;97027.38;;;16.07;77.30
39769;BME280;38939;47.824;14.642;2023-06-26T04:34:39;97031.41;;;16.10;77.28
39769;BME280;38939;47.824;14.642;2023-06-26T04:35:45;97033.22;;;16.09;78.13
39769;BME280;38939;47.824;14.642;2023-06-26T04:36:50;97036.91;;;16.08;78.21
39769;BME280;38939;47.824;14.642;2023-06-26T04:37:53;97032.44;;;16.09;77.80
39769;BME280;38939;47.824;14.642;2023-06-26T04:38:55;97038.47;;;16.09;77.88
39769;BME280;38939;47.824;14.642;2023-06-26T04:39:57;97037.91;;;16.07;77.63
39769;BME280;38939;47.824;14.642;2023-06-26T04:40:59;97035.06;;;16.09;77.73
39769;BME280;38939;47.824;14.642;2023-06-26T04:42:01;97039.31;;;16.10;77.78
39769;BME280;38939;47.824;14.642;2023-06-26T04:43:03;97041.13;;;16.09;77.92
39769;BME280;38939;47.824;14.642;2023-06-26T04:44:05;97033.78;;;16.11;77.82
39769;BME280;38939;47.824;14.642;2023-06-26T04:45:07;97032.75;;;16.12;77.66
39769;BME280;38939;47.824;14.642;2023-06-26T04:46:09;97038.59;;;16.14;77.31
39769;BME280;38939;47.824;14.642;2023-06-26T04:47:11;97041.22;;;16.14;77.55
39769;BME280;38939;47.824;14.642;2023-06-26T04:48:13;97034.69;;;16.17;77.35
39769;BME280;38939;47.824;14.642;2023-06-26T04:49:15;97033.41;;;16.19;77.33
39769;BME280;38939;47.824;14.642;2023-06-26T04:50:19;97039.25;;;16.22;77.45
39769;BME280;38939;47.824;14.642;2023-06-26T04:51:21;97036.16;;;16.25;77.35
39769;BME280;38939;47.824;14.642;2023-06-26T04:52:22;97033.53;;;16.25;77.13
39769;BME280;38939;47.824;14.642;2023-06-26T04:53:24;97026.19;;;16.27;77.46
39769;BME280;38939;47.824;14.642;2023-06-26T04:54:27;97033.59;;;16.30;77.09
39769;BME280;38939;47.824;14.642;2023-06-26T04:55:29;97028.34;;;16.30;77.35
39769;BME280;38939;47.824;14.642;2023-06-26T04:56:32;97030.75;;;16.31;77.13
39769;BME280;38939;47.824;14.642;2023-06-26T04:57:36;97033.38;;;16.31;76.96
39769;BME280;38939;47.824;14.642;2023-06-26T04:58:38;97022.84;;;16.31;77.09
39769;BME280;38939;47.824;14.642;2023-06-26T04:59:39;97027.88;;;16.33;77.08
39769;BME280;38939;47.824;14.642;2023-06-26T05:00:42;97026.25;;;16.32;77.07
39769;BME280;38939;47.824;14.642;2023-06-26T05:01:44;97029.72;;;16.32;77.05
39769;BME280;38939;47.824;14.642;2023-06-26T05:02:50;97026.84;;;16.34;76.95
39769;BME280;38939;47.824;14.642;2023-06-26T05:04:02;97027.66;;;16.34;76.59
39769;BME280;38939;47.824;14.642;2023-06-26T05:05:04;97023.19;;;16.35;77.34
39769;BME280;38939;47.824;14.642;2023-06-26T05:06:06;97025.00;;;16.34;77.86
39769;BME280;38939;47.824;14.642;2023-06-26T05:07:10;97033.16;;;16.33;77.77
39769;BME280;38939;47.824;14.642;2023-06-26T05:08:22;97029.38;;;16.29;77.96
39769;BME280;38939;47.824;14.642;2023-06-26T05:09:24;97024.56;;;16.26;77.78
39769;BME280;38939;47.824;14.642;2023-06-26T05:10:26;97025.13;;;16.28;77.84
39769;BME280;38939;47.824;14.642;2023-06-26T05:11:28;97017.25;;;16.28;77.76
39769;BME280;38939;47.824;14.642;2023-06-26T05:12:29;97019.31;;;16.26;77.49
39769;BME280;38939;47.824;14.642;2023-06-26T05:13:31;97020.91;;;16.27;77.48
39769;BME280;38939;47.824;14.642;2023-06-26T05:14:33;97017.25;;;16.28;77.28
39769;BME280;38939;47.824;14.642;2023-06-26T05:15:35;97025.69;;;16.30;77.67
39769;BME280;38939;47.824;14.642;2023-06-26T05:16:37;97023.06;;;16.30;77.54
39769;BME280;38939;47.824;14.642;2023-06-26T05:17:38;97022.28;;;16.29;77.66
39769;BME280;38939;47.824;14.642;2023-06-26T05:18:40;97025.69;;;16.30;77.82
39769;BME280;38939;47.824;14.642;2023-06-26T05:19:42;97025.47;;;16.31;77.77
39769;BME280;38939;47.824;14.642;2023-06-26T05:20:44;97025.25;;;16.33;77.58
39769;BME280;38939;47.824;14.642;2023-06-26T05:21:46;97022.13;;;16.36;77.67
39769;BME280;38939;47.824;14.642;2023-06-26T05:22:49;97024.31;;;16.39;77.96
39769;BME280;38939;47.824;14.642;2023-06-26T05:23:51;97028.53;;;16.40;77.60
39769;BME280;38939;47.824;14.642;2023-06-26T05:24:57;97018.56;;;16.42;77.87
39769;BME280;38939;47.824;14.642;2023-06-26T05:26:01;97021.78;;;16.44;77.76
39769;BME280;38939;47.824;14.642;2023-06-26T05:27:03;97015.22;;;16.47;77.67
39769;BME280;38939;47.824;14.642;2023-06-26T05:28:05;97027.13;;;16.49;77.84
39769;BME280;38939;47.824;14.642;2023-06-26T05:29:07;97015.31;;;16.52;77.63
39769;BME280;38939;47.824;14.642;2023-06-26T05:30:09;97013.00;;;16.55;77.64
39769;BME280;38939;47.824;14.642;2023-06-26T05:31:12;97023.06;;;16.58;77.67
39769;BME280;38939;47.824;14.642;2023-06-26T05:32:15;97014.69;;;16.62;77.71
39769;BME280;38939;47.824;14.642;2023-06-26T05:33:19;97022.91;;;16.65;77.81